createdAt,value
2022-11-05T00:00:37.872Z,101887.22
2022-11-05T00:03:24.362Z,101889.72
2022-11-05T00:06:12.733Z,101887.00
2022-11-05T00:09:00.060Z,101890.66
2022-11-05T00:11:46.410Z,101897.16
2022-11-05T00:14:33.061Z,101892.06
2022-11-05T00:17:00.781Z,101892.22
2022-11-05T00:19:28.454Z,101892.09
2022-11-05T00:22:14.260Z,101899.94
2022-11-05T00:25:00.160Z,101900.94
2022-11-05T00:27:27.747Z,101894.75
2022-11-05T00:29:55.726Z,101900.94
2022-11-05T00:32:23.479Z,101909.63
2022-11-05T00:34:51.219Z,101904.38
2022-11-05T00:37:18.916Z,101918.22
2022-11-05T00:39:47.058Z,101908.06
2022-11-05T00:42:33.408Z,101916.81
2022-11-05T00:45:01.058Z,101909.06
2022-11-05T00:48:07.939Z,101914.31
2022-11-05T00:50:35.670Z,101910.25
2022-11-05T00:53:03.956Z,101903.94
2022-11-05T00:55:40.603Z,101908.28
2022-11-05T00:58:20.385Z,101905.88
2022-11-05T01:00:56.039Z,101909.41
2022-11-05T01:03:28.987Z,101923.47
2022-11-05T01:06:09.248Z,101920.94
2022-11-05T01:08:38.010Z,101921.84
2022-11-05T01:11:11.561Z,101919.13
2022-11-05T01:13:40.048Z,101920.94
2022-11-05T01:16:10.016Z,101924.41
2022-11-05T01:18:38.894Z,101924.41
2022-11-05T01:21:12.391Z,101918.16
2022-11-05T01:23:39.902Z,101920.88
2022-11-05T01:26:07.374Z,101919.16
2022-11-05T01:28:35.192Z,101914.88
2022-11-05T01:31:02.722Z,101917.47
2022-11-05T01:33:30.146Z,101913.91
2022-11-05T01:35:58.019Z,101913.00
2022-11-05T01:38:25.768Z,101912.97
2022-11-05T01:40:53.502Z,101918.13
2022-11-05T01:43:23.786Z,101924.13
2022-11-05T01:45:55.373Z,101918.31
2022-11-05T01:48:35.534Z,101918.22
2022-11-05T01:51:08.510Z,101914.88
2022-11-05T01:53:50.926Z,101917.56
2022-11-05T01:56:26.123Z,101921.97
2022-11-05T01:58:59.768Z,101916.75
2022-11-05T02:01:27.857Z,101918.38
2022-11-05T02:04:01.779Z,101915.09
2022-11-05T02:06:32.846Z,101920.44
2022-11-05T02:09:05.552Z,101915.56
2022-11-05T02:11:33.502Z,101915.63
2022-11-05T02:14:01.002Z,101901.63
2022-11-05T02:16:50.935Z,101903.47
2022-11-05T02:19:55.743Z,101895.41
2022-11-05T02:23:00.676Z,101898.16
2022-11-05T02:25:46.503Z,101898.13
2022-11-05T02:28:51.846Z,101898.78
2022-11-05T02:31:31.255Z,101902.69
2022-11-05T02:34:12.572Z,101899.94
2022-11-05T02:37:16.305Z,101907.28
2022-11-05T02:39:48.361Z,101906.47
2022-11-05T02:42:25.629Z,101892.34
2022-11-05T02:44:53.002Z,101902.88
2022-11-05T02:47:42.358Z,101894.19
2022-11-05T02:50:24.168Z,101887.00
2022-11-05T02:53:00.734Z,101879.78
2022-11-05T02:55:42.457Z,101892.06
2022-11-05T02:58:11.461Z,101886.16
2022-11-05T03:00:55.880Z,101882.66
2022-11-05T03:03:48.574Z,101890.00
2022-11-05T03:06:21.773Z,101889.00
2022-11-05T03:08:51.977Z,101894.03
2022-11-05T03:11:23.526Z,101896.72
2022-11-05T03:14:06.903Z,101892.31
2022-11-05T03:16:58.522Z,101889.03
2022-11-05T03:19:59.907Z,101888.13
2022-11-05T03:22:37.858Z,101898.78
2022-11-05T03:25:11.038Z,101896.91
2022-11-05T03:27:40.951Z,101902.16
2022-11-05T03:30:12.040Z,101897.53
2022-11-05T03:32:51.050Z,101902.03
2022-11-05T03:35:24.119Z,101896.16
2022-11-05T03:37:56.978Z,101893.81
2022-11-05T03:40:26.313Z,101892.03
2022-11-05T03:42:58.178Z,101890.22
2022-11-05T03:45:30.836Z,101893.59
2022-11-05T03:48:01.460Z,101885.59
2022-11-05T03:51:10.971Z,101886.59
2022-11-05T03:53:50.644Z,101890.00
2022-11-05T03:56:20.601Z,101879.97
2022-11-05T03:58:48.833Z,101882.59
2022-11-05T04:01:16.653Z,101889.72
2022-11-05T04:03:44.262Z,101890.88
2022-11-05T04:06:30.524Z,101898.16
2022-11-05T04:09:16.328Z,101890.59
2022-11-05T04:12:02.022Z,101895.47
2022-11-05T04:14:30.847Z,101888.38
2022-11-05T04:17:07.188Z,101894.59
2022-11-05T04:19:54.390Z,101888.28
2022-11-05T04:22:41.572Z,101893.25
2022-11-05T04:25:09.662Z,101888.19
2022-11-05T04:27:37.482Z,101886.38
2022-11-05T04:30:21.867Z,101884.78
2022-11-05T04:33:11.598Z,101885.06
2022-11-05T04:35:47.682Z,101883.44
2022-11-05T04:38:19.388Z,101888.66
2022-11-05T04:40:48.246Z,101892.19
2022-11-05T04:43:17.229Z,101889.16
2022-11-05T04:45:45.702Z,101896.28
2022-11-05T04:48:13.657Z,101888.88
2022-11-05T04:50:41.331Z,101887.22
2022-11-05T04:53:09.038Z,101893.56
2022-11-05T04:55:37.075Z,101893.72
2022-11-05T04:58:04.724Z,101899.75
2022-11-05T05:00:32.316Z,101897.09
2022-11-05T05:03:00.048Z,101906.47
2022-11-05T05:05:27.662Z,101909.44
2022-11-05T05:07:55.351Z,101906.19
2022-11-05T05:10:22.911Z,101903.50
2022-11-05T05:12:50.459Z,101899.19
2022-11-05T05:15:18.408Z,101911.63
2022-11-05T05:17:51.793Z,101902.03
2022-11-05T05:20:40.099Z,101898.28
2022-11-05T05:23:08.142Z,101904.22
2022-11-05T05:25:36.020Z,101905.53
2022-11-05T05:28:03.560Z,101896.53
2022-11-05T05:30:31.051Z,101902.75
2022-11-05T05:33:02.402Z,101903.00
2022-11-05T05:35:30.327Z,101900.28
2022-11-05T05:37:57.915Z,101901.13
2022-11-05T05:40:25.410Z,101909.91
2022-11-05T05:42:55.962Z,101900.72
2022-11-05T05:45:23.362Z,101899.91
2022-11-05T05:47:50.800Z,101899.78
2022-11-05T05:50:18.296Z,101899.53
2022-11-05T05:52:45.819Z,101904.31
2022-11-05T05:55:13.393Z,101893.84
2022-11-05T05:57:41.023Z,101888.69
2022-11-05T06:00:09.554Z,101882.56
2022-11-05T06:02:37.471Z,101895.09
2022-11-05T06:05:05.581Z,101890.56
2022-11-05T06:07:37.005Z,101902.56
2022-11-05T06:10:05.997Z,101900.72
2022-11-05T06:12:33.879Z,101905.03
2022-11-05T06:15:01.708Z,101913.31
2022-11-05T06:17:29.413Z,101912.44
2022-11-05T06:19:56.851Z,101913.75
2022-11-05T06:22:24.767Z,101920.03
2022-11-05T06:24:52.303Z,101915.69
2022-11-05T06:27:20.040Z,101921.94
2022-11-05T06:29:47.869Z,101933.53
2022-11-05T06:32:15.392Z,101932.63
2022-11-05T06:34:43.039Z,101915.84
2022-11-05T06:37:10.599Z,101922.75
2022-11-05T06:39:38.099Z,101927.59
2022-11-05T06:42:21.314Z,101930.75
2022-11-05T06:44:48.826Z,101929.69
2022-11-05T06:47:16.638Z,101931.50
2022-11-05T06:49:44.875Z,101929.00
2022-11-05T06:52:13.710Z,101927.72
2022-11-05T06:54:42.800Z,101931.59
2022-11-05T06:57:11.306Z,101920.75
2022-11-05T06:59:39.623Z,101922.34
2022-11-05T07:02:10.065Z,101934.66
2022-11-05T07:04:37.546Z,101916.56
2022-11-05T07:07:06.536Z,101916.34
2022-11-05T07:09:34.428Z,101920.34
2022-11-05T07:12:02.304Z,101923.06
2022-11-05T07:14:29.772Z,101915.38
2022-11-05T07:16:57.626Z,101899.19
2022-11-05T07:19:25.070Z,101902.59
2022-11-05T07:21:52.669Z,101897.31
2022-11-05T07:24:20.229Z,101891.59
2022-11-05T07:26:47.733Z,101898.41
2022-11-05T07:29:15.201Z,101899.44
2022-11-05T07:31:42.721Z,101898.63
2022-11-05T07:34:10.271Z,101894.03
2022-11-05T07:36:39.507Z,101898.41
2022-11-05T07:39:07.078Z,101900.44
2022-11-05T07:41:34.428Z,101898.41
2022-11-05T07:44:03.911Z,101900.91
2022-11-05T07:46:31.608Z,101901.81
2022-11-05T07:48:59.231Z,101912.03
2022-11-05T07:51:26.692Z,101908.72
2022-11-05T07:53:54.156Z,101907.56
2022-11-05T07:56:22.085Z,101905.13
2022-11-05T07:58:49.795Z,101911.84
2022-11-05T08:01:17.820Z,101910.41
2022-11-05T08:03:45.797Z,101898.84
2022-11-05T08:06:13.334Z,101904.97
2022-11-05T08:08:40.847Z,101899.50
2022-11-05T08:11:10.975Z,101897.00
2022-11-05T08:13:38.789Z,101896.84
2022-11-05T08:16:06.507Z,101895.09
2022-11-05T08:18:34.192Z,101880.97
2022-11-05T08:21:04.837Z,101893.16
2022-11-05T08:23:33.174Z,101892.13
2022-11-05T08:26:03.796Z,101897.81
2022-11-05T08:28:31.696Z,101902.78
2022-11-05T08:30:59.487Z,101902.22
2022-11-05T08:33:28.051Z,101895.16
2022-11-05T08:35:55.792Z,101903.25
2022-11-05T08:38:23.436Z,101913.75
2022-11-05T08:40:57.459Z,101916.44
2022-11-05T08:43:25.661Z,101915.41
2022-11-05T08:45:55.065Z,101918.81
2022-11-05T08:48:22.885Z,101916.19
2022-11-05T08:50:50.569Z,101920.56
2022-11-05T08:53:18.795Z,101922.38
2022-11-05T08:55:47.866Z,101911.13
2022-11-05T08:58:17.139Z,101910.91
2022-11-05T09:00:47.385Z,101901.63
2022-11-05T09:03:16.220Z,101894.41
2022-11-05T09:05:44.141Z,101882.28
2022-11-05T09:08:14.190Z,101892.78
2022-11-05T09:10:43.862Z,101894.13
2022-11-05T09:13:18.359Z,101889.69
2022-11-05T09:15:48.547Z,101869.78
2022-11-05T09:18:17.395Z,101858.19
2022-11-05T09:20:45.300Z,101859.56
2022-11-05T09:23:15.019Z,101860.84
2022-11-05T09:25:43.615Z,101860.34
2022-11-05T09:28:16.179Z,101873.72
2022-11-05T09:30:49.773Z,101861.50
2022-11-05T09:33:19.610Z,101854.84
2022-11-05T09:35:47.600Z,101848.81
2022-11-05T09:38:16.037Z,101842.81
2022-11-05T09:41:04.875Z,101844.03
2022-11-05T09:43:38.440Z,101853.72
2022-11-05T09:46:17.424Z,101860.72
2022-11-05T09:48:49.957Z,101862.97
2022-11-05T09:51:23.638Z,101861.06
2022-11-05T09:53:53.666Z,101874.31
2022-11-05T09:56:28.751Z,101890.00
2022-11-05T09:59:02.700Z,101888.72
2022-11-05T10:01:36.856Z,101879.44
2022-11-05T10:04:17.908Z,101876.53
2022-11-05T10:06:52.488Z,101882.94
2022-11-05T10:09:26.605Z,101878.28
2022-11-05T10:12:00.693Z,101870.28
2022-11-05T10:14:37.153Z,101876.94
2022-11-05T10:17:14.346Z,101903.94
2022-11-05T10:19:47.024Z,101888.19
2022-11-05T10:22:17.112Z,101882.47
2022-11-05T10:24:47.856Z,101889.75
2022-11-05T10:27:31.976Z,101887.22
2022-11-05T10:30:01.917Z,101888.91
2022-11-05T10:32:37.529Z,101879.63
2022-11-05T10:35:08.705Z,101886.50
2022-11-05T10:37:40.712Z,101894.53
2022-11-05T10:40:38.545Z,101889.59
2022-11-05T10:43:13.190Z,101882.72
2022-11-05T10:45:57.836Z,101879.13
2022-11-05T10:48:36.064Z,101866.88
2022-11-05T10:51:07.606Z,101867.81
2022-11-05T10:53:38.588Z,101866.22
2022-11-05T10:56:36.227Z,101891.63
2022-11-05T10:59:11.858Z,101882.34
2022-11-05T11:01:40.197Z,101869.97
2022-11-05T11:04:17.096Z,101879.75
2022-11-05T11:06:50.244Z,101861.66
2022-11-05T11:09:25.484Z,101853.47
2022-11-05T11:12:03.093Z,101857.16
2022-11-05T11:14:30.971Z,101848.88
2022-11-05T11:17:27.649Z,101842.94
2022-11-05T11:20:19.915Z,101837.44
2022-11-05T11:23:16.640Z,101831.28
2022-11-05T11:26:00.666Z,101834.03
2022-11-05T11:28:33.392Z,101833.00
2022-11-05T11:31:17.722Z,101838.16
2022-11-05T11:33:49.563Z,101844.25
2022-11-05T11:36:26.481Z,101829.31
2022-11-05T11:39:04.352Z,101818.78
2022-11-05T11:41:37.634Z,101830.03
2022-11-05T11:44:17.251Z,101818.31
2022-11-05T11:46:52.320Z,101822.09
2022-11-05T11:49:41.979Z,101825.91
2022-11-05T11:52:31.495Z,101827.47
2022-11-05T11:55:10.848Z,101814.72
2022-11-05T11:57:51.040Z,101838.44
2022-11-05T12:00:21.149Z,101828.41
2022-11-05T12:03:07.054Z,101826.66
2022-11-05T12:05:43.585Z,101826.09
2022-11-05T12:08:36.242Z,101815.06
2022-11-05T12:11:21.259Z,101809.56
2022-11-05T12:14:09.898Z,101805.28
2022-11-05T12:16:46.452Z,101803.28
2022-11-05T12:19:36.833Z,101797.94
2022-11-05T12:22:10.525Z,101797.78
2022-11-05T12:24:56.586Z,101790.94
2022-11-05T12:27:35.713Z,101785.59
2022-11-05T12:30:11.969Z,101789.91
2022-11-05T12:32:45.007Z,101783.84
2022-11-05T12:35:30.517Z,101791.88
2022-11-05T12:38:24.393Z,101779.50
2022-11-05T12:40:55.124Z,101788.22
2022-11-05T12:43:42.142Z,101788.28
2022-11-05T12:46:18.226Z,101780.44
2022-11-05T12:48:55.468Z,101787.56
2022-11-05T12:51:28.838Z,101780.16
2022-11-05T12:54:11.822Z,101769.88
2022-11-05T12:56:45.472Z,101770.53
2022-11-05T12:59:32.105Z,101763.19
2022-11-05T13:02:21.382Z,101765.38
2022-11-05T13:04:57.340Z,101769.81
2022-11-05T13:07:35.172Z,101781.84
2022-11-05T13:10:19.008Z,101763.63
2022-11-05T13:13:13.676Z,101762.72
2022-11-05T13:15:50.807Z,101756.69
2022-11-05T13:18:24.553Z,101744.44
2022-11-05T13:20:54.540Z,101754.25
2022-11-05T13:23:39.707Z,101752.50
2022-11-05T13:26:19.717Z,101755.94
2022-11-05T13:29:03.986Z,101749.78
2022-11-05T13:31:38.204Z,101742.81
2022-11-05T13:34:11.376Z,101745.63
2022-11-05T13:37:06.802Z,101740.22
2022-11-05T13:39:41.485Z,101742.06
2022-11-05T13:42:30.583Z,101750.84
2022-11-05T13:45:32.385Z,101735.16
2022-11-05T13:48:41.610Z,101725.66
2022-11-05T13:51:24.383Z,101720.50
2022-11-05T13:54:29.066Z,101747.56
2022-11-05T13:57:04.222Z,101739.88
2022-11-05T13:59:40.813Z,101754.38
2022-11-05T14:02:20.927Z,101736.94
2022-11-05T14:05:00.532Z,101744.72
2022-11-05T14:07:31.618Z,101729.94
2022-11-05T14:10:08.401Z,101742.19
2022-11-05T14:12:39.581Z,101726.53
2022-11-05T14:15:23.759Z,101731.72
2022-11-05T14:18:05.157Z,101734.28
2022-11-05T14:20:33.033Z,101742.03
2022-11-05T14:23:25.312Z,101738.56
2022-11-05T14:26:01.507Z,101723.03
2022-11-05T14:28:35.341Z,101746.56
2022-11-05T14:31:18.677Z,101737.78
2022-11-05T14:33:55.176Z,101737.94
2022-11-05T14:36:30.662Z,101730.03
2022-11-05T14:39:17.071Z,101733.63
2022-11-05T14:42:04.469Z,101726.47
2022-11-05T14:44:35.619Z,101722.25
2022-11-05T14:47:19.567Z,101735.25
2022-11-05T14:49:54.283Z,101732.47
2022-11-05T14:52:21.851Z,101728.41
2022-11-05T14:54:53.675Z,101716.88
2022-11-05T14:57:41.962Z,101713.47
2022-11-05T15:00:28.669Z,101717.75
2022-11-05T15:02:58.969Z,101705.63
2022-11-05T15:05:35.101Z,101699.47
2022-11-05T15:08:28.057Z,101696.94
2022-11-05T15:11:07.586Z,101705.41
2022-11-05T15:13:42.994Z,101706.25
2022-11-05T15:16:19.650Z,101697.50
2022-11-05T15:18:47.709Z,101691.63
2022-11-05T15:21:18.544Z,101688.06
2022-11-05T15:23:48.917Z,101679.38
2022-11-05T15:26:43.848Z,101671.47
2022-11-05T15:29:19.214Z,101670.59
2022-11-05T15:31:47.887Z,101678.41
2022-11-05T15:34:30.984Z,101666.16
2022-11-05T15:37:01.599Z,101659.19
2022-11-05T15:39:32.409Z,101653.03
2022-11-05T15:42:04.811Z,101657.44
2022-11-05T15:44:40.487Z,101656.53
2022-11-05T15:47:14.449Z,101661.66
2022-11-05T15:49:44.847Z,101673.75
2022-11-05T15:52:14.852Z,101674.56
2022-11-05T15:54:43.017Z,101678.88
2022-11-05T15:57:23.517Z,101669.41
2022-11-05T15:59:51.732Z,101672.91
2022-11-05T16:02:57.346Z,101679.75
2022-11-05T16:05:28.509Z,101668.44
2022-11-05T16:08:05.301Z,101662.22
2022-11-05T16:10:36.812Z,101653.50
2022-11-05T16:13:41.273Z,101656.09
2022-11-05T16:16:14.852Z,101639.63
2022-11-05T16:18:44.579Z,101657.91
2022-11-05T16:21:18.644Z,101659.50
2022-11-05T16:23:57.463Z,101662.09
2022-11-05T16:29:30.920Z,101662.13
2022-11-05T16:32:01.895Z,101652.44
2022-11-05T16:34:40.137Z,101649.84
2022-11-05T16:37:13.455Z,101648.16
2022-11-05T16:39:41.242Z,101653.31
2022-11-05T16:42:22.811Z,101644.53
2022-11-05T16:44:51.757Z,101648.88
2022-11-05T16:47:19.984Z,101642.81
2022-11-05T16:49:48.288Z,101642.81
2022-11-05T16:52:17.055Z,101634.09
2022-11-05T16:54:44.581Z,101632.28
2022-11-05T16:57:24.403Z,101622.75
2022-11-05T16:59:57.045Z,101618.25
2022-11-05T17:02:26.150Z,101633.06
2022-11-05T17:04:59.825Z,101617.38
2022-11-05T17:07:27.784Z,101614.69
2022-11-05T17:09:56.180Z,101613.84
2022-11-05T17:12:23.998Z,101605.94
2022-11-05T17:14:51.440Z,101603.34
2022-11-05T17:17:19.047Z,101608.53
2022-11-05T17:19:47.206Z,101605.00
2022-11-05T17:22:15.178Z,101606.72
2022-11-05T17:24:42.901Z,101609.22
2022-11-05T17:27:10.629Z,101604.88
2022-11-05T17:29:38.460Z,101595.25
2022-11-05T17:32:06.460Z,101601.34
2022-11-05T17:34:34.585Z,101603.00
2022-11-05T17:37:02.525Z,101597.84
2022-11-05T17:39:31.824Z,101603.94
2022-11-05T17:42:00.679Z,101599.56
2022-11-05T17:44:28.451Z,101594.28
2022-11-05T17:46:56.421Z,101598.69
2022-11-05T17:49:24.348Z,101602.88
2022-11-05T17:51:51.904Z,101590.81
2022-11-05T17:54:19.355Z,101596.94
2022-11-05T17:56:47.221Z,101602.09
2022-11-05T17:59:14.838Z,101590.72
2022-11-05T18:01:43.837Z,101602.94
2022-11-05T18:04:12.032Z,101599.31
2022-11-05T18:06:41.014Z,101594.97
2022-11-05T18:09:09.793Z,101587.13
2022-11-05T18:11:38.155Z,101588.88
2022-11-05T18:14:06.825Z,101587.03
2022-11-05T18:16:35.232Z,101584.50
2022-11-05T18:19:04.665Z,101574.88
2022-11-05T18:21:32.410Z,101578.31
2022-11-05T18:24:03.852Z,101579.16
2022-11-05T18:26:31.936Z,101578.22
2022-11-05T18:29:04.442Z,101571.34
2022-11-05T18:31:32.344Z,101572.97
2022-11-05T18:34:00.259Z,101570.28
2022-11-05T18:36:32.151Z,101562.53
2022-11-05T18:39:02.767Z,101561.63
2022-11-05T18:41:31.085Z,101561.56
2022-11-05T18:44:00.656Z,101554.59
2022-11-05T18:46:56.337Z,101547.63
2022-11-05T18:49:18.195Z,101541.34
2022-11-05T18:51:46.277Z,101539.59
2022-11-05T18:54:14.842Z,101534.47
2022-11-05T18:56:45.668Z,101537.06
2022-11-05T18:59:35.795Z,101542.41
2022-11-05T19:02:05.170Z,101546.81
2022-11-05T19:04:34.726Z,101543.19
2022-11-05T19:07:05.084Z,101550.13
2022-11-05T19:09:35.045Z,101542.31
2022-11-05T19:12:03.438Z,101541.41
2022-11-05T19:14:31.640Z,101544.88
2022-11-05T19:17:00.262Z,101534.44
2022-11-05T19:19:28.670Z,101544.81
2022-11-05T19:21:56.651Z,101545.78
2022-11-05T19:24:24.757Z,101542.31
2022-11-05T19:26:52.929Z,101530.19
2022-11-05T19:29:20.713Z,101523.09
2022-11-05T19:31:48.946Z,101524.84
2022-11-05T19:34:17.190Z,101529.25
2022-11-05T19:36:44.966Z,101522.28
2022-11-05T19:39:14.434Z,101535.25
2022-11-05T19:41:42.282Z,101530.97
2022-11-05T19:44:11.623Z,101528.53
2022-11-05T19:46:39.613Z,101529.22
2022-11-05T19:49:07.337Z,101524.09
2022-11-05T19:51:35.172Z,101512.75
2022-11-05T19:54:04.438Z,101511.03
2022-11-05T19:56:34.377Z,101517.03
2022-11-05T19:59:03.471Z,101503.06
2022-11-05T20:01:32.453Z,101496.97
2022-11-05T20:04:02.476Z,101504.72
2022-11-05T20:06:33.009Z,101503.72
2022-11-05T20:11:54.540Z,101501.06
2022-11-05T20:14:24.468Z,101497.72
2022-11-05T20:16:53.086Z,101504.66
2022-11-05T20:19:22.441Z,101499.28
2022-11-05T20:21:50.792Z,101497.53
2022-11-05T20:24:24.645Z,101498.41
2022-11-05T20:26:55.253Z,101487.09
2022-11-05T20:29:35.283Z,101491.22
2022-11-05T20:32:04.469Z,101500.00
2022-11-05T20:34:33.869Z,101494.75
2022-11-05T20:37:02.203Z,101487.75
2022-11-05T20:39:30.320Z,101497.34
2022-11-05T20:42:00.493Z,101493.75
2022-11-05T20:44:28.999Z,101487.75
2022-11-05T20:46:57.129Z,101485.94
2022-11-05T20:49:25.819Z,101485.91
2022-11-05T20:51:54.440Z,101491.91
2022-11-05T20:54:22.009Z,101477.97
2022-11-05T20:56:50.165Z,101483.13
2022-11-05T20:59:18.336Z,101473.44
2022-11-05T21:01:46.491Z,101477.66
2022-11-05T21:04:15.020Z,101468.97
2022-11-05T21:06:42.893Z,101474.09
2022-11-05T21:09:10.511Z,101456.66
2022-11-05T21:11:57.448Z,101464.25
2022-11-05T21:14:25.475Z,101456.50
2022-11-05T21:16:53.425Z,101453.91
2022-11-05T21:19:23.993Z,101446.75
2022-11-05T21:21:52.013Z,101451.00
2022-11-05T21:24:19.682Z,101439.69
2022-11-05T21:26:49.940Z,101439.50
2022-11-05T21:29:18.601Z,101441.38
2022-11-05T21:31:46.829Z,101437.78
2022-11-05T21:34:14.720Z,101436.81
2022-11-05T21:36:42.633Z,101438.66
2022-11-05T21:39:13.699Z,101430.81
2022-11-05T21:41:42.773Z,101426.34
2022-11-05T21:44:10.375Z,101422.69
2022-11-05T21:46:38.001Z,101415.69
2022-11-05T21:49:06.091Z,101420.91
2022-11-05T21:51:52.529Z,101420.88
2022-11-05T21:54:38.733Z,101425.00
2022-11-05T21:57:32.146Z,101419.81
2022-11-05T22:00:00.892Z,101414.56
2022-11-05T22:02:28.861Z,101409.19
2022-11-05T22:04:57.646Z,101410.88
2022-11-05T22:07:28.731Z,101403.84
2022-11-05T22:09:59.933Z,101404.59
2022-11-05T22:12:28.356Z,101408.00
2022-11-05T22:14:56.291Z,101404.59
2022-11-05T22:17:24.183Z,101405.25
2022-11-05T22:19:51.829Z,101411.47
2022-11-05T22:22:19.348Z,101401.88
2022-11-05T22:24:47.207Z,101400.91
2022-11-05T22:27:18.395Z,101397.53
2022-11-05T22:29:46.299Z,101407.78
2022-11-05T22:32:14.436Z,101395.69
2022-11-05T22:34:42.375Z,101395.66
2022-11-05T22:37:12.945Z,101390.34
2022-11-05T22:39:40.953Z,101387.78
2022-11-05T22:42:08.974Z,101381.63
2022-11-05T22:44:37.302Z,101387.72
2022-11-05T22:47:05.596Z,101384.19
2022-11-05T22:49:33.780Z,101376.34
2022-11-05T22:52:01.368Z,101375.47
2022-11-05T22:54:28.996Z,101373.72
2022-11-05T22:56:56.567Z,101367.53
2022-11-05T22:59:24.158Z,101362.13
2022-11-05T23:01:52.167Z,101354.31
2022-11-05T23:04:20.017Z,101355.22
2022-11-05T23:07:06.068Z,101354.16
2022-11-05T23:09:53.563Z,101361.09
2022-11-05T23:12:34.232Z,101354.06
2022-11-05T23:15:05.675Z,101343.56
2022-11-05T23:17:52.246Z,101347.06
2022-11-05T23:20:41.055Z,101352.97
2022-11-05T23:23:30.778Z,101350.53
2022-11-05T23:26:00.179Z,101350.34
2022-11-05T23:28:28.023Z,101345.13
2022-11-05T23:31:14.276Z,101345.13
2022-11-05T23:33:41.860Z,101332.88
2022-11-05T23:36:30.992Z,101340.78
2022-11-05T23:38:58.811Z,101323.94
2022-11-05T23:41:44.719Z,101330.03
2022-11-05T23:44:31.097Z,101331.78
2022-11-05T23:47:16.939Z,101328.28
2022-11-05T23:49:44.477Z,101320.25
2022-11-05T23:52:12.303Z,101329.88
2022-11-05T23:54:40.157Z,101328.03
2022-11-05T23:57:07.942Z,101322.91
2022-11-05T23:59:35.632Z,101317.56
